createdAt,value
2016-11-28T04:00:59.829Z,15.7
2016-11-28T04:01:27.153Z,15.72
2016-11-28T04:01:52.446Z,15.68
2016-11-28T04:02:18.141Z,15.74
2016-11-28T04:02:43.710Z,15.74
2016-11-28T04:03:09.936Z,15.68
2016-11-28T04:03:35.484Z,15.84
2016-11-28T04:04:01.035Z,15.68
2016-11-28T04:04:26.762Z,15.72
2016-11-28T04:04:52.300Z,15.74
2016-11-28T04:05:17.863Z,15.74
2016-11-28T04:05:44.935Z,15.74
2016-11-28T04:06:10.500Z,15.75
2016-11-28T04:06:36.073Z,15.7
2016-11-28T04:07:01.596Z,15.67
2016-11-28T04:07:27.116Z,15.76
2016-11-28T04:07:52.799Z,15.74
2016-11-28T04:08:18.355Z,15.64
2016-11-28T04:08:43.928Z,15.67
2016-11-28T04:09:09.482Z,15.7
2016-11-28T04:09:35.043Z,15.74
2016-11-28T04:10:00.577Z,15.7
2016-11-28T04:10:26.149Z,15.72
2016-11-28T04:10:51.721Z,15.76
2016-11-28T04:11:17.268Z,15.68
2016-11-28T04:11:42.815Z,15.68
2016-11-28T04:12:08.361Z,15.75
2016-11-28T04:12:34.028Z,15.68
2016-11-28T04:12:59.578Z,15.74
2016-11-28T04:13:25.224Z,15.67
2016-11-28T04:13:50.849Z,15.7
2016-11-28T04:14:16.407Z,15.68
2016-11-28T04:14:41.963Z,15.7
2016-11-28T04:15:07.508Z,15.75
2016-11-28T04:15:33.078Z,15.7
2016-11-28T04:15:58.634Z,15.68
2016-11-28T04:16:24.184Z,15.74
2016-11-28T04:16:49.751Z,15.67
2016-11-28T04:17:15.374Z,15.7
2016-11-28T04:17:40.930Z,15.68
2016-11-28T04:18:06.678Z,15.75
2016-11-28T04:18:32.620Z,15.75
2016-11-28T04:18:58.183Z,15.75
2016-11-28T04:19:23.729Z,15.72
2016-11-28T04:19:49.260Z,15.7
2016-11-28T04:20:14.796Z,15.74
2016-11-28T04:20:40.365Z,15.67
2016-11-28T04:21:05.911Z,15.74
2016-11-28T04:21:31.452Z,15.72
2016-11-28T04:21:57.004Z,15.7
2016-11-28T04:22:22.552Z,15.76
2016-11-28T04:22:48.124Z,15.72
2016-11-28T04:23:13.669Z,15.75
2016-11-28T04:23:39.225Z,15.7
2016-11-28T04:24:04.732Z,15.74
2016-11-28T04:24:30.323Z,15.74
2016-11-28T04:24:55.793Z,15.72
2016-11-28T04:25:21.338Z,15.72
2016-11-28T04:25:46.879Z,15.72
2016-11-28T04:26:12.477Z,15.72
2016-11-28T04:26:38.095Z,15.74
2016-11-28T04:27:03.610Z,15.67
2016-11-28T04:27:29.140Z,15.75
2016-11-28T04:27:54.662Z,15.68
2016-11-28T04:28:20.183Z,15.7
2016-11-28T04:28:45.831Z,15.68
2016-11-28T04:29:11.407Z,15.72
2016-11-28T04:29:36.919Z,15.75
2016-11-28T04:30:02.446Z,15.7
2016-11-28T04:30:27.963Z,15.74
2016-11-28T04:30:53.521Z,15.74
2016-11-28T04:31:19.031Z,15.72
2016-11-28T04:31:44.574Z,15.76
2016-11-28T04:32:10.146Z,15.7
2016-11-28T04:32:35.686Z,15.74
2016-11-28T04:33:01.193Z,15.72
2016-11-28T04:33:26.713Z,15.78
2016-11-28T04:33:52.307Z,15.7
2016-11-28T04:34:17.841Z,15.74
2016-11-28T04:34:43.352Z,15.68
2016-11-28T04:35:08.874Z,15.7
2016-11-28T04:35:34.402Z,15.79
2016-11-28T04:36:00.021Z,15.72
2016-11-28T04:36:25.577Z,15.81
2016-11-28T04:36:51.099Z,15.81
2016-11-28T04:37:16.647Z,15.74
2016-11-28T04:37:42.143Z,15.82
2016-11-28T04:38:07.687Z,15.79
2016-11-28T04:38:33.213Z,15.82
2016-11-28T04:38:58.754Z,15.82
2016-11-28T04:39:24.440Z,15.82
2016-11-28T04:39:49.964Z,15.75
2016-11-28T04:40:15.514Z,15.81
2016-11-28T04:40:41.050Z,15.78
2016-11-28T04:41:06.574Z,15.78
2016-11-28T04:41:32.096Z,15.74
2016-11-28T04:41:57.646Z,15.75
2016-11-28T04:42:23.147Z,15.76
2016-11-28T04:42:48.845Z,15.81
2016-11-28T04:43:14.361Z,15.84
2016-11-28T04:43:39.903Z,15.81
2016-11-28T04:44:05.419Z,15.84
2016-11-28T04:44:31.002Z,15.86
2016-11-28T04:44:56.549Z,15.76
2016-11-28T04:45:22.115Z,15.78
2016-11-28T04:45:47.690Z,15.85
2016-11-28T04:46:13.261Z,15.76
2016-11-28T04:46:38.800Z,15.85
2016-11-28T04:47:04.354Z,15.75
2016-11-28T04:47:29.869Z,15.79
2016-11-28T04:47:55.448Z,15.85
2016-11-28T04:48:21.008Z,15.78
2016-11-28T04:48:46.565Z,15.86
2016-11-28T04:49:12.099Z,15.81
2016-11-28T04:49:37.661Z,15.79
2016-11-28T04:50:03.227Z,15.85
2016-11-28T04:50:28.833Z,15.84
2016-11-28T04:51:03.160Z,15.84
2016-11-28T04:51:28.864Z,15.81
2016-11-28T04:51:56.133Z,15.85
2016-11-28T04:52:24.360Z,15.81
2016-11-28T04:52:53.534Z,15.89
2016-11-28T04:53:19.088Z,15.78
2016-11-28T04:53:45.569Z,15.84
2016-11-28T04:54:11.128Z,15.84
2016-11-28T04:54:38.656Z,15.84
2016-11-28T04:55:04.280Z,15.81
2016-11-28T04:55:30.756Z,15.82
2016-11-28T04:55:57.881Z,15.74
2016-11-28T04:56:30.931Z,15.78
2016-11-28T09:54:08.636Z,16.99
2016-11-28T09:55:11.299Z,16.99
2016-11-28T09:55:45.285Z,16.99
2016-11-28T09:56:18.705Z,17.14
2016-11-28T09:56:52.126Z,17.06
2016-11-28T09:58:01.787Z,17.11
2016-11-28T09:58:34.354Z,17.06
2016-11-28T09:59:24.633Z,17.1
2016-11-28T09:59:58.147Z,17.14
2016-11-28T10:00:31.756Z,17.08
2016-11-28T10:01:47.973Z,17.15
2016-11-28T10:02:21.383Z,17.2
2016-11-28T10:02:54.882Z,17.28
2016-11-28T10:03:28.333Z,17.26
2016-11-28T10:04:01.866Z,17.29
2016-11-28T10:04:35.209Z,17.32
2016-11-28T10:05:08.658Z,17.32
2016-11-28T10:06:18.245Z,17.35
2016-11-28T10:06:51.817Z,17.36
2016-11-28T10:07:25.241Z,17.38
2016-11-28T10:07:54.517Z,17.33
2016-11-28T10:08:44.673Z,17.38
2016-11-28T10:09:54.271Z,17.4
2016-11-28T10:10:27.094Z,17.43
2016-11-28T10:11:16.568Z,17.46
2016-11-28T10:12:06.576Z,17.5
2016-11-28T10:13:16.075Z,17.54
2016-11-28T10:14:32.035Z,17.59
2016-11-28T10:15:05.755Z,17.73
2016-11-28T10:15:39.247Z,17.64
2016-11-28T10:16:48.756Z,17.69
2016-11-28T10:17:44.441Z,17.74
2016-11-28T10:18:34.572Z,17.82
2016-11-28T10:19:50.264Z,17.89
2016-11-28T10:20:40.419Z,17.88
2016-11-28T10:21:13.738Z,17.89
2016-11-28T10:22:16.573Z,17.87
2016-11-28T10:22:49.933Z,17.94
2016-11-28T10:23:22.788Z,17.94
2016-11-28T10:24:12.794Z,17.94
2016-11-28T10:24:46.330Z,17.94
2016-11-28T10:25:19.159Z,17.97
2016-11-28T10:26:35.423Z,18.02
2016-11-28T10:27:08.864Z,18.03
2016-11-28T10:28:25.045Z,18.03
2016-11-28T10:28:58.491Z,18.19
2016-11-28T10:29:32.024Z,18.12
2016-11-28T10:30:04.877Z,18.22
2016-11-28T10:30:54.234Z,18.21
2016-11-28T10:31:44.528Z,18.28
2016-11-28T10:32:17.690Z,18.34
2016-11-28T10:32:50.226Z,18.24
2016-11-28T10:33:19.210Z,18.31
2016-11-28T10:33:52.669Z,18.4
2016-11-28T10:34:26.123Z,18.34
2016-11-28T10:34:59.534Z,18.36
2016-11-28T10:35:55.704Z,18.43
2016-11-28T10:36:28.492Z,18.39
2016-11-28T10:37:02.381Z,18.4
2016-11-28T10:38:11.704Z,18.43
2016-11-28T10:39:14.764Z,18.5
2016-11-28T10:39:48.240Z,18.55
2016-11-28T10:40:57.087Z,18.58
2016-11-28T10:41:46.557Z,18.61
2016-11-28T10:42:36.568Z,18.64
2016-11-28T10:43:09.729Z,18.7
2016-11-28T10:44:12.494Z,18.7
2016-11-28T10:45:21.088Z,18.76
2016-11-28T10:46:29.584Z,18.7
2016-11-28T10:47:02.736Z,18.82
2016-11-28T10:47:57.836Z,18.82
2016-11-28T10:48:48.128Z,18.91
2016-11-28T10:49:20.362Z,18.94
2016-11-28T10:49:53.392Z,18.95
2016-11-28T10:50:26.741Z,18.95
2016-11-28T10:50:54.752Z,19.02
2016-11-28T10:51:50.520Z,18.99
2016-11-28T10:52:46.849Z,19.02
2016-11-28T10:53:49.808Z,19.05
2016-11-28T10:54:57.458Z,19.13
2016-11-28T10:56:12.855Z,19.21
2016-11-28T10:57:28.982Z,19.23
2016-11-28T10:58:25.237Z,19.21
2016-11-28T10:58:58.767Z,19.21
2016-11-28T11:00:07.566Z,19.24
2016-11-28T11:00:57.490Z,19.32
2016-11-28T11:01:53.549Z,19.32
2016-11-28T11:02:25.123Z,19.43
2016-11-28T11:02:56.208Z,19.47
2016-11-28T11:04:05.632Z,19.39
2016-11-28T11:04:39.146Z,19.48
2016-11-28T11:05:12.150Z,19.43
2016-11-28T11:06:15.461Z,19.54
2016-11-28T11:06:48.581Z,19.53
2016-11-28T11:07:58.350Z,19.57
2016-11-28T11:08:31.824Z,19.53
2016-11-28T11:09:41.458Z,19.58
2016-11-28T11:10:57.482Z,19.63
2016-11-28T11:11:30.919Z,19.61
2016-11-28T11:12:04.263Z,19.66
2016-11-28T11:12:37.139Z,19.65
2016-11-28T11:13:26.716Z,19.65
2016-11-28T11:14:00.527Z,19.6
2016-11-28T11:14:56.014Z,19.53
2016-11-28T11:15:45.463Z,19.65
2016-11-28T11:16:35.632Z,19.6
2016-11-28T11:17:45.176Z,19.53
2016-11-28T11:18:17.167Z,19.54
2016-11-28T11:19:07.113Z,19.53
2016-11-28T11:20:02.407Z,19.57
2016-11-28T11:20:35.651Z,19.51
2016-11-28T11:21:30.977Z,19.48
2016-11-28T11:22:21.092Z,19.54
2016-11-28T11:23:17.202Z,19.55
2016-11-28T11:23:50.674Z,19.6
2016-11-28T11:24:24.178Z,19.53
2016-11-28T11:24:57.298Z,19.54
2016-11-28T11:25:30.489Z,19.51
2016-11-28T11:26:40.328Z,19.57
2016-11-28T11:27:43.087Z,19.57
2016-11-28T11:28:52.729Z,19.51
2016-11-28T11:29:48.913Z,19.48
2016-11-28T11:30:21.708Z,19.47
2016-11-28T11:31:11.362Z,19.46
2016-11-28T11:32:21.122Z,19.43
2016-11-28T11:32:54.583Z,19.43
2016-11-28T11:33:28.354Z,19.42
2016-11-28T11:34:01.727Z,19.5
2016-11-28T11:34:35.087Z,19.46
